createdAt,value
2022-10-11T00:01:01.450Z,8.75
2022-10-11T00:03:36.370Z,8.74
2022-10-11T00:06:06.336Z,8.72
2022-10-11T00:08:35.785Z,8.69
2022-10-11T00:11:07.197Z,8.67
2022-10-11T00:13:35.133Z,8.64
2022-10-11T00:16:08.881Z,8.62
2022-10-11T00:18:37.200Z,8.59
2022-10-11T00:21:12.169Z,8.57
2022-10-11T00:23:41.912Z,8.53
2022-10-11T00:26:12.233Z,8.50
2022-10-11T00:28:41.067Z,8.47
2022-10-11T00:31:11.613Z,8.46
2022-10-11T00:33:39.929Z,8.45
2022-10-11T00:36:09.547Z,8.44
2022-10-11T00:38:37.700Z,8.44
2022-10-11T00:41:06.013Z,8.44
2022-10-11T00:43:34.411Z,8.43
2022-10-11T00:46:25.653Z,8.43
2022-10-11T00:49:01.537Z,8.41
2022-10-11T00:51:43.742Z,8.40
2022-10-11T00:54:15.434Z,8.40
2022-10-11T00:56:46.495Z,8.40
2022-10-11T00:59:19.194Z,8.40
2022-10-11T01:01:47.211Z,8.40
2022-10-11T01:04:15.544Z,8.40
2022-10-11T01:06:44.259Z,8.39
2022-10-11T01:09:13.728Z,8.39
2022-10-11T01:11:44.001Z,8.39
2022-10-11T01:14:49.541Z,8.39
2022-10-11T01:17:30.796Z,8.39
2022-10-11T01:20:20.809Z,8.39
2022-10-11T01:23:10.286Z,8.39
2022-10-11T01:25:44.116Z,8.40
2022-10-11T01:28:42.297Z,8.42
2022-10-11T01:31:38.353Z,8.41
2022-10-11T01:34:22.013Z,8.41
2022-10-11T01:37:07.252Z,8.41
2022-10-11T01:39:42.514Z,8.43
2022-10-11T01:42:12.465Z,8.44
2022-10-11T01:44:45.752Z,8.45
2022-10-11T01:47:14.362Z,8.46
2022-10-11T01:49:42.485Z,8.47
2022-10-11T01:52:10.965Z,8.47
2022-10-11T01:55:20.278Z,8.48
2022-10-11T01:58:34.436Z,8.50
2022-10-11T02:01:14.567Z,8.52
2022-10-11T02:03:58.350Z,8.54
2022-10-11T02:06:47.585Z,8.55
2022-10-11T02:09:34.437Z,8.55
2022-10-11T02:12:12.796Z,8.57
2022-10-11T02:14:45.413Z,8.59
2022-10-11T02:17:19.930Z,8.60
2022-10-11T02:19:52.899Z,8.62
2022-10-11T02:22:27.401Z,8.65
2022-10-11T02:24:59.235Z,8.68
2022-10-11T02:27:33.377Z,8.71
2022-10-11T02:30:04.942Z,8.72
2022-10-11T02:32:34.635Z,8.73
2022-10-11T02:35:03.237Z,8.74
2022-10-11T02:37:56.836Z,8.75
2022-10-11T02:40:33.015Z,8.76
2022-10-11T02:43:24.168Z,8.78
2022-10-11T02:45:58.779Z,8.77
2022-10-11T02:48:29.566Z,8.77
2022-10-11T02:50:58.811Z,8.76
2022-10-11T02:53:27.395Z,8.77
2022-10-11T02:55:55.875Z,8.77
2022-10-11T02:58:24.759Z,8.77
2022-10-11T03:00:52.890Z,8.78
2022-10-11T03:03:20.847Z,8.79
2022-10-11T03:05:48.910Z,8.80
2022-10-11T03:08:18.138Z,8.81
2022-10-11T03:10:46.588Z,8.83
2022-10-11T03:13:18.058Z,8.84
2022-10-11T03:16:02.858Z,8.85
2022-10-11T03:18:31.901Z,8.86
2022-10-11T03:21:00.110Z,8.87
2022-10-11T03:23:28.300Z,8.89
2022-10-11T03:25:56.389Z,8.91
2022-10-11T03:28:24.398Z,8.93
2022-10-11T03:30:52.542Z,8.96
2022-10-11T03:33:20.570Z,8.99
2022-10-11T03:35:50.011Z,9.01
2022-10-11T03:38:21.185Z,9.03
2022-10-11T03:40:49.542Z,9.05
2022-10-11T03:43:18.237Z,9.06
2022-10-11T03:45:46.549Z,9.08
2022-10-11T03:48:14.801Z,9.10
2022-10-11T03:50:42.844Z,9.12
2022-10-11T03:53:11.585Z,9.15
2022-10-11T03:55:40.711Z,9.17
2022-10-11T03:58:09.367Z,9.20
2022-10-11T04:00:37.538Z,9.24
2022-10-11T04:03:05.438Z,9.28
2022-10-11T04:05:33.499Z,9.35
2022-10-11T04:08:01.393Z,9.41
2022-10-11T04:10:31.166Z,9.47
2022-10-11T04:12:59.234Z,9.51
2022-10-11T04:15:27.129Z,9.54
2022-10-11T04:17:55.282Z,9.57
2022-10-11T04:20:23.295Z,9.59
2022-10-11T04:22:51.265Z,9.61
2022-10-11T04:25:19.298Z,9.62
2022-10-11T04:27:47.362Z,9.64
2022-10-11T04:30:16.576Z,9.67
2022-10-11T04:32:45.273Z,9.70
2022-10-11T04:35:13.632Z,9.71
2022-10-11T04:37:41.616Z,9.72
2022-10-11T04:40:10.344Z,9.73
2022-10-11T04:42:38.485Z,9.74
2022-10-11T04:45:07.175Z,9.75
2022-10-11T04:47:35.895Z,9.75
2022-10-11T04:50:04.723Z,9.74
2022-10-11T04:52:32.905Z,9.73
2022-10-11T04:55:00.983Z,9.72
2022-10-11T04:57:29.057Z,9.70
2022-10-11T04:59:57.090Z,9.71
2022-10-11T05:02:25.109Z,9.73
2022-10-11T05:04:53.299Z,9.74
2022-10-11T05:07:21.599Z,9.75
2022-10-11T05:09:49.632Z,9.75
2022-10-11T05:12:17.564Z,9.76
2022-10-11T05:14:45.501Z,9.77
2022-10-11T05:17:13.518Z,9.79
2022-10-11T05:19:41.531Z,9.81
2022-10-11T05:22:09.967Z,9.84
2022-10-11T05:24:38.013Z,9.85
2022-10-11T05:27:05.947Z,9.87
2022-10-11T05:29:34.248Z,9.89
2022-10-11T05:32:05.530Z,9.90
2022-10-11T05:34:33.549Z,9.93
2022-10-11T05:37:01.486Z,9.96
2022-10-11T05:39:29.607Z,10.00
2022-10-11T05:41:57.722Z,10.02
2022-10-11T05:44:25.819Z,10.03
2022-10-11T05:46:53.765Z,10.06
2022-10-11T05:49:21.783Z,10.10
2022-10-11T05:51:49.712Z,10.13
2022-10-11T05:54:17.673Z,10.15
2022-10-11T05:56:45.645Z,10.16
2022-10-11T05:59:13.612Z,10.17
2022-10-11T06:01:41.827Z,10.18
2022-10-11T06:04:11.927Z,10.20
2022-10-11T06:06:39.896Z,10.22
2022-10-11T06:09:07.986Z,10.23
2022-10-11T06:11:36.017Z,10.24
2022-10-11T06:14:04.112Z,10.25
2022-10-11T06:16:32.361Z,10.27
2022-10-11T06:19:01.061Z,10.31
2022-10-11T06:21:29.049Z,10.34
2022-10-11T06:24:01.389Z,10.37
2022-10-11T06:26:30.322Z,10.38
2022-10-11T06:28:58.803Z,10.40
2022-10-11T06:31:27.977Z,10.41
2022-10-11T06:33:55.927Z,10.42
2022-10-11T06:36:23.998Z,10.44
2022-10-11T06:38:53.223Z,10.43
2022-10-11T06:41:24.448Z,10.44
2022-10-11T06:43:52.828Z,10.44
2022-10-11T06:46:23.825Z,10.44
2022-10-11T06:48:53.082Z,10.42
2022-10-11T06:51:22.413Z,10.41
2022-10-11T06:53:52.440Z,10.37
2022-10-11T06:56:20.923Z,10.33
2022-10-11T06:58:51.092Z,10.30
2022-10-11T07:01:21.664Z,10.26
2022-10-11T07:03:52.133Z,10.22
2022-10-11T07:06:22.473Z,10.20
2022-10-11T07:08:50.802Z,10.16
2022-10-11T07:11:21.853Z,10.13
2022-10-11T07:14:01.996Z,10.10
2022-10-11T07:16:30.881Z,10.06
2022-10-11T07:19:01.442Z,10.04
2022-10-11T07:21:31.684Z,10.03
2022-10-11T07:24:00.860Z,10.02
2022-10-11T07:26:33.734Z,10.01
2022-10-11T07:29:05.351Z,10.01
2022-10-11T07:31:33.475Z,10.01
2022-10-11T07:34:01.576Z,10.04
2022-10-11T07:36:29.666Z,10.06
2022-10-11T07:38:58.207Z,10.09
2022-10-11T07:41:26.302Z,10.12
2022-10-11T07:43:55.123Z,10.14
2022-10-11T07:46:23.292Z,10.18
2022-10-11T07:48:51.349Z,10.21
2022-10-11T07:51:22.173Z,10.26
2022-10-11T07:53:55.828Z,10.29
2022-10-11T07:56:27.892Z,10.33
2022-10-11T07:59:03.604Z,10.38
2022-10-11T08:01:31.857Z,10.42
2022-10-11T08:04:00.684Z,10.45
2022-10-11T08:06:32.667Z,10.46
2022-10-11T08:09:02.447Z,10.49
2022-10-11T08:11:33.714Z,10.49
2022-10-11T08:14:04.584Z,10.50
2022-10-11T08:16:32.702Z,10.51
2022-10-11T08:19:01.444Z,10.53
2022-10-11T08:21:30.280Z,10.56
2022-10-11T08:23:58.296Z,10.61
2022-10-11T08:26:26.223Z,10.65
2022-10-11T08:28:54.204Z,10.73
2022-10-11T08:31:22.304Z,10.79
2022-10-11T08:33:50.647Z,10.84
2022-10-11T08:36:18.572Z,10.87
2022-10-11T08:38:46.652Z,10.93
2022-10-11T08:41:29.782Z,11.01
2022-10-11T08:44:22.681Z,11.12
2022-10-11T08:47:00.597Z,11.35
2022-10-11T08:49:33.531Z,11.54
2022-10-11T08:52:11.831Z,11.72
2022-10-11T08:54:58.074Z,11.87
2022-10-11T08:57:29.960Z,11.98
2022-10-11T09:00:01.340Z,12.03
2022-10-11T09:03:02.990Z,12.09
2022-10-11T09:05:30.323Z,12.13
2022-10-11T09:08:05.915Z,12.16
2022-10-11T09:10:59.243Z,12.19
2022-10-11T09:13:50.378Z,12.23
2022-10-11T09:16:30.773Z,12.35
2022-10-11T09:19:17.388Z,12.43
2022-10-11T09:22:16.702Z,12.52
2022-10-11T09:25:15.574Z,12.69
2022-10-11T09:28:02.503Z,12.82
2022-10-11T09:30:32.674Z,12.93
2022-10-11T09:33:16.461Z,12.98
2022-10-11T09:35:50.212Z,13.04
2022-10-11T09:38:50.983Z,13.05
2022-10-11T09:41:29.895Z,13.03
2022-10-11T09:43:57.798Z,13.07
2022-10-11T09:46:35.719Z,13.10
2022-10-11T09:49:09.704Z,13.11
2022-10-11T09:51:38.661Z,13.06
2022-10-11T09:54:07.455Z,13.02
2022-10-11T09:56:42.152Z,13.00
2022-10-11T09:59:29.944Z,12.97
2022-10-11T10:02:13.593Z,12.90
2022-10-11T10:04:54.042Z,12.86
2022-10-11T10:07:22.849Z,12.89
2022-10-11T10:09:51.280Z,12.96
2022-10-11T10:12:26.418Z,13.02
2022-10-11T10:15:03.699Z,13.13
2022-10-11T10:17:32.245Z,13.25
2022-10-11T10:20:00.859Z,13.29
2022-10-11T10:22:32.276Z,13.29
2022-10-11T10:25:06.115Z,13.31
2022-10-11T10:27:35.013Z,13.38
2022-10-11T10:30:09.200Z,13.40
2022-10-11T10:32:53.384Z,13.42
2022-10-11T10:35:57.027Z,13.47
2022-10-11T10:38:40.933Z,13.51
2022-10-11T10:41:15.599Z,13.49
2022-10-11T10:43:51.261Z,13.49
2022-10-11T10:46:46.954Z,13.51
2022-10-11T10:49:59.838Z,13.46
2022-10-11T10:52:47.473Z,13.41
2022-10-11T10:55:15.426Z,13.36
2022-10-11T10:58:07.447Z,13.35
2022-10-11T11:00:48.485Z,13.40
2022-10-11T11:03:24.326Z,13.46
2022-10-11T11:06:10.330Z,13.44
2022-10-11T11:09:23.353Z,13.43
2022-10-11T11:11:58.346Z,13.40
2022-10-11T11:14:47.997Z,13.36
2022-10-11T11:17:47.248Z,13.28
2022-10-11T11:20:42.130Z,13.22
2022-10-11T11:23:12.693Z,13.17
2022-10-11T11:26:07.547Z,13.15
2022-10-11T11:28:54.967Z,13.13
2022-10-11T11:31:49.129Z,13.11
2022-10-11T11:34:19.778Z,13.06
2022-10-11T11:36:55.282Z,13.08
2022-10-11T11:39:43.559Z,13.13
2022-10-11T11:42:31.428Z,13.17
2022-10-11T11:45:11.958Z,13.19
2022-10-11T11:47:44.431Z,13.17
2022-10-11T11:50:23.280Z,13.16
2022-10-11T11:52:56.525Z,13.09
2022-10-11T11:55:49.507Z,13.06
2022-10-11T11:58:53.129Z,13.01
2022-10-11T12:01:47.908Z,12.97
2022-10-11T12:04:38.918Z,12.96
2022-10-11T12:07:16.352Z,12.94
2022-10-11T12:10:11.515Z,12.90
2022-10-11T12:12:39.827Z,12.86
2022-10-11T12:15:27.321Z,12.82
2022-10-11T12:17:56.056Z,12.74
2022-10-11T12:20:38.753Z,12.72
2022-10-11T12:23:20.047Z,12.63
2022-10-11T12:26:27.296Z,12.60
2022-10-11T12:29:18.673Z,12.56
2022-10-11T12:31:49.769Z,12.52
2022-10-11T12:34:26.876Z,12.49
2022-10-11T12:36:54.974Z,12.44
2022-10-11T12:39:23.242Z,12.39
2022-10-11T12:42:06.035Z,12.35
2022-10-11T12:44:34.238Z,12.31
2022-10-11T12:47:35.581Z,12.29
2022-10-11T12:50:22.813Z,12.24
2022-10-11T12:53:12.157Z,12.20
2022-10-11T12:55:48.281Z,12.19
2022-10-11T12:58:40.611Z,12.20
2022-10-11T13:01:10.590Z,12.23
2022-10-11T13:03:49.184Z,12.24
2022-10-11T13:06:26.800Z,12.22
2022-10-11T13:09:05.847Z,12.21
2022-10-11T13:11:38.892Z,12.21
2022-10-11T13:14:11.725Z,12.24
2022-10-11T13:16:51.674Z,12.29
2022-10-11T13:19:23.635Z,12.33
2022-10-11T13:21:55.215Z,12.35
2022-10-11T13:24:25.660Z,12.36
2022-10-11T13:26:57.065Z,12.37
2022-10-11T13:29:33.873Z,12.38
2022-10-11T13:32:06.851Z,12.38
2022-10-11T13:34:40.451Z,12.39
2022-10-11T13:37:17.604Z,12.40
2022-10-11T13:39:46.992Z,12.37
2022-10-11T13:42:17.416Z,12.32
2022-10-11T13:44:47.269Z,12.23
2022-10-11T13:47:18.478Z,12.15
2022-10-11T13:49:53.434Z,12.11
2022-10-11T13:52:24.259Z,12.12
2022-10-11T13:54:55.146Z,12.15
2022-10-11T13:57:49.247Z,12.20
2022-10-11T14:00:19.892Z,12.25
2022-10-11T14:02:59.654Z,12.28
2022-10-11T14:05:29.943Z,12.28
2022-10-11T14:08:02.189Z,12.21
2022-10-11T14:10:30.776Z,12.14
2022-10-11T14:13:00.373Z,12.07
2022-10-11T14:15:35.464Z,11.99
2022-10-11T14:19:02.325Z,11.93
2022-10-11T14:21:51.320Z,11.82
2022-10-11T14:24:20.685Z,11.77
2022-10-11T14:26:54.292Z,11.73
2022-10-11T14:29:26.813Z,11.69
2022-10-11T14:32:03.094Z,11.63
2022-10-11T14:34:31.854Z,11.57
2022-10-11T14:36:59.875Z,11.54
2022-10-11T14:39:31.938Z,11.51
2022-10-11T14:42:00.035Z,11.49
2022-10-11T14:44:28.059Z,11.48
2022-10-11T14:46:56.105Z,11.45
2022-10-11T14:49:27.314Z,11.42
2022-10-11T14:51:57.418Z,11.37
2022-10-11T14:54:27.903Z,11.33
2022-10-11T14:56:59.569Z,11.28
2022-10-11T14:59:34.368Z,11.25
2022-10-11T15:02:04.439Z,11.23
2022-10-11T15:04:32.884Z,11.22
2022-10-11T15:07:01.281Z,11.19
2022-10-11T15:09:29.950Z,11.18
2022-10-11T15:12:00.503Z,11.14
2022-10-11T15:14:28.557Z,11.11
2022-10-11T15:16:56.585Z,11.06
2022-10-11T15:19:25.628Z,11.02
2022-10-11T15:21:53.870Z,10.99
2022-10-11T15:24:22.061Z,10.95
2022-10-11T15:26:50.645Z,10.91
2022-10-11T15:29:20.412Z,10.88
2022-10-11T15:31:49.508Z,10.85
2022-10-11T15:34:17.951Z,10.80
2022-10-11T15:36:45.988Z,10.76
2022-10-11T15:39:24.566Z,10.71
2022-10-11T15:41:52.594Z,10.67
2022-10-11T15:44:20.633Z,10.60
2022-10-11T15:46:48.631Z,10.55
2022-10-11T15:49:17.314Z,10.48
2022-10-11T15:51:46.256Z,10.40
2022-10-11T15:54:17.850Z,10.32
2022-10-11T15:56:45.873Z,10.24
2022-10-11T15:59:13.857Z,10.16
2022-10-11T16:01:41.954Z,10.07
2022-10-11T16:04:10.315Z,9.96
2022-10-11T16:06:38.451Z,9.90
2022-10-11T16:09:06.787Z,9.81
2022-10-11T16:11:34.815Z,9.74
2022-10-11T16:14:03.306Z,9.67
2022-10-11T16:16:31.612Z,9.59
2022-10-11T16:18:59.513Z,9.52
2022-10-11T16:21:27.494Z,9.47
2022-10-11T16:23:55.429Z,9.39
2022-10-11T16:26:23.539Z,9.33
2022-10-11T16:28:51.607Z,9.27
2022-10-11T16:31:21.546Z,9.23
2022-10-11T16:33:50.422Z,9.18
2022-10-11T16:36:32.062Z,9.14
2022-10-11T16:39:02.249Z,9.08
2022-10-11T16:41:30.299Z,9.05
2022-10-11T16:43:58.759Z,9.00
2022-10-11T16:46:27.076Z,8.96
2022-10-11T16:48:58.459Z,8.91
2022-10-11T16:51:26.832Z,8.86
2022-10-11T16:53:54.799Z,8.82
2022-10-11T16:56:25.098Z,8.75
2022-10-11T16:58:54.279Z,8.70
2022-10-11T17:01:22.728Z,8.64
2022-10-11T17:03:51.189Z,8.59
2022-10-11T17:06:20.179Z,8.54
2022-10-11T17:08:48.212Z,8.51
2022-10-11T17:11:17.833Z,8.45
2022-10-11T17:13:46.491Z,8.40
2022-10-11T17:16:15.802Z,8.34
2022-10-11T17:18:44.318Z,8.30
2022-10-11T17:21:15.473Z,8.27
2022-10-11T17:23:44.155Z,8.24
2022-10-11T17:26:18.104Z,8.22
2022-10-11T17:28:46.703Z,8.18
2022-10-11T17:31:15.346Z,8.16
2022-10-11T17:33:43.523Z,8.11
2022-10-11T17:36:32.042Z,8.08
2022-10-11T17:39:02.180Z,8.05
2022-10-11T17:41:32.196Z,8.03
2022-10-11T17:44:01.874Z,8.01
2022-10-11T17:46:32.855Z,7.99
2022-10-11T17:49:06.662Z,7.97
2022-10-11T17:51:36.540Z,7.97
2022-10-11T17:54:06.306Z,7.96
2022-10-11T17:56:38.054Z,7.95
2022-10-11T17:59:07.423Z,7.94
2022-10-11T18:01:36.070Z,7.92
2022-10-11T18:04:06.117Z,7.90
2022-10-11T18:06:39.415Z,7.89
2022-10-11T18:09:07.490Z,7.89
2022-10-11T18:11:35.762Z,7.87
2022-10-11T18:14:05.181Z,7.84
2022-10-11T18:16:33.901Z,7.81
2022-10-11T18:19:04.542Z,7.79
2022-10-11T18:21:34.668Z,7.77
2022-10-11T18:24:15.584Z,7.75
2022-10-11T18:26:45.733Z,7.74
2022-10-11T18:29:14.401Z,7.72
2022-10-11T18:31:42.533Z,7.70
2022-10-11T18:34:13.176Z,7.70
2022-10-11T18:36:41.681Z,7.68
2022-10-11T18:39:14.271Z,7.66
2022-10-11T18:41:44.747Z,7.63
2022-10-11T18:44:15.466Z,7.60
2022-10-11T18:46:44.966Z,7.56
2022-10-11T18:49:13.782Z,7.53
2022-10-11T18:51:44.906Z,7.52
2022-10-11T18:54:16.660Z,7.49
2022-10-11T18:56:48.847Z,7.47
2022-10-11T18:59:17.235Z,7.44
2022-10-11T19:01:46.299Z,7.42
2022-10-11T19:04:18.441Z,7.36
2022-10-11T19:06:48.133Z,7.37
2022-10-11T19:09:21.914Z,7.33
2022-10-11T19:11:51.806Z,7.30
2022-10-11T19:14:22.806Z,7.26
2022-10-11T19:16:51.782Z,7.23
2022-10-11T19:19:28.320Z,7.19
2022-10-11T19:21:57.189Z,7.15
2022-10-11T19:24:27.465Z,7.12
2022-10-11T19:26:59.848Z,7.07
2022-10-11T19:29:32.429Z,7.04
2022-10-11T19:32:03.671Z,7.01
2022-10-11T19:34:32.966Z,6.98
2022-10-11T19:37:01.577Z,6.94
2022-10-11T19:39:29.897Z,6.90
2022-10-11T19:41:57.914Z,6.87
2022-10-11T19:44:26.083Z,6.84
2022-10-11T19:46:54.182Z,6.83
2022-10-11T19:49:25.327Z,6.80
2022-10-11T19:51:55.529Z,6.79
2022-10-11T19:54:24.327Z,6.76
2022-10-11T19:56:52.734Z,6.72
2022-10-11T19:59:20.753Z,6.69
2022-10-11T20:01:52.618Z,6.69
2022-10-11T20:07:10.102Z,6.67
2022-10-11T20:09:38.121Z,6.67
2022-10-11T20:12:08.139Z,6.69
2022-10-11T20:14:37.160Z,6.69
2022-10-11T20:17:05.227Z,6.67
2022-10-11T20:19:33.376Z,6.64
2022-10-11T20:22:01.941Z,6.61
2022-10-11T20:24:33.570Z,6.58
2022-10-11T20:27:06.137Z,6.55
2022-10-11T20:29:35.050Z,6.51
2022-10-11T20:32:02.989Z,6.48
2022-10-11T20:34:31.203Z,6.45
2022-10-11T20:36:59.500Z,6.43
2022-10-11T20:39:27.534Z,6.40
2022-10-11T20:41:55.521Z,6.38
2022-10-11T20:44:23.650Z,6.36
2022-10-11T20:46:51.596Z,6.34
2022-10-11T20:49:20.146Z,6.34
2022-10-11T20:51:49.003Z,6.34
2022-10-11T20:54:17.331Z,6.36
2022-10-11T20:56:45.594Z,6.37
2022-10-11T20:59:13.631Z,6.38
2022-10-11T21:01:42.016Z,6.38
2022-10-11T21:04:18.151Z,6.40
2022-10-11T21:06:47.993Z,6.42
2022-10-11T21:09:17.222Z,6.44
2022-10-11T21:11:46.401Z,6.43
2022-10-11T21:14:14.833Z,6.41
2022-10-11T21:16:42.963Z,6.40
2022-10-11T21:19:14.075Z,6.39
2022-10-11T21:21:43.323Z,6.36
2022-10-11T21:24:11.345Z,6.33
2022-10-11T21:26:39.361Z,6.31
2022-10-11T21:29:08.550Z,6.29
2022-10-11T21:31:36.469Z,6.29
2022-10-11T21:34:06.890Z,6.29
2022-10-11T21:36:35.178Z,6.31
2022-10-11T21:39:03.809Z,6.31
2022-10-11T21:41:31.922Z,6.31
2022-10-11T21:44:00.535Z,6.29
2022-10-11T21:47:05.031Z,6.27
2022-10-11T21:49:19.188Z,6.24
2022-10-11T21:51:47.257Z,6.21
2022-10-11T21:54:15.285Z,6.17
2022-10-11T21:56:44.337Z,6.12
2022-10-11T21:59:12.915Z,6.08
2022-10-11T22:01:42.192Z,6.05
2022-10-11T22:04:11.311Z,6.02
2022-10-11T22:06:40.237Z,6.01
2022-10-11T22:09:08.695Z,5.99
2022-10-11T22:11:37.616Z,5.97
2022-10-11T22:14:06.109Z,5.97
2022-10-11T22:16:35.318Z,5.97
2022-10-11T22:19:03.890Z,5.99
2022-10-11T22:21:31.903Z,5.99
2022-10-11T22:24:00.189Z,6.01
2022-10-11T22:26:31.290Z,6.02
2022-10-11T22:29:00.617Z,6.03
2022-10-11T22:31:30.106Z,6.04
2022-10-11T22:34:00.573Z,6.03
2022-10-11T22:36:30.808Z,6.03
2022-10-11T22:38:59.178Z,6.01
2022-10-11T22:41:27.371Z,5.99
2022-10-11T22:43:55.350Z,5.98
2022-10-11T22:46:23.515Z,5.96
2022-10-11T22:48:51.534Z,5.95
2022-10-11T22:51:19.792Z,5.93
2022-10-11T22:53:47.816Z,5.92
2022-10-11T22:56:15.831Z,5.91
2022-10-11T22:58:43.854Z,5.90
2022-10-11T23:01:14.928Z,5.86
2022-10-11T23:03:43.357Z,5.84
2022-10-11T23:06:11.485Z,5.81
2022-10-11T23:08:39.457Z,5.78
2022-10-11T23:11:08.225Z,5.75
2022-10-11T23:13:36.528Z,5.74
2022-10-11T23:16:09.458Z,5.72
2022-10-11T23:18:37.788Z,5.70
2022-10-11T23:21:06.500Z,5.66
2022-10-11T23:23:36.326Z,5.64
2022-10-11T23:26:07.372Z,5.61
2022-10-11T23:28:36.923Z,5.59
2022-10-11T23:31:13.884Z,5.57
2022-10-11T23:33:42.414Z,5.54
2022-10-11T23:36:19.004Z,5.51
2022-10-11T23:38:55.264Z,5.48
2022-10-11T23:41:25.192Z,5.47
2022-10-11T23:43:53.443Z,5.46
2022-10-11T23:46:21.481Z,5.45
2022-10-11T23:48:49.544Z,5.43
2022-10-11T23:51:17.532Z,5.41
2022-10-11T23:53:45.597Z,5.39
2022-10-11T23:56:13.635Z,5.38
2022-10-11T23:58:41.774Z,5.37
